sensor_id;sensor_type;location;lat;lon;timestamp;temperature;humidity
43920;DHT22;29578;51.946;5.874;2023-05-08T00:00:22;15.50;87.00
43920;DHT22;29578;51.946;5.874;2023-05-08T00:02:47;15.40;87.00
43920;DHT22;29578;51.946;5.874;2023-05-08T00:05:13;15.50;87.00
43920;DHT22;29578;51.946;5.874;2023-05-08T00:07:39;15.50;87.30
43920;DHT22;29578;51.946;5.874;2023-05-08T00:10:05;15.50;86.90
43920;DHT22;29578;51.946;5.874;2023-05-08T00:12:31;15.50;87.00
43920;DHT22;29578;51.946;5.874;2023-05-08T00:14:58;15.50;87.00
43920;DHT22;29578;51.946;5.874;2023-05-08T00:17:24;15.40;86.90
43920;DHT22;29578;51.946;5.874;2023-05-08T00:19:49;15.40;86.90
43920;DHT22;29578;51.946;5.874;2023-05-08T00:22:15;15.40;87.00
43920;DHT22;29578;51.946;5.874;2023-05-08T00:24:40;15.40;87.00
43920;DHT22;29578;51.946;5.874;2023-05-08T00:27:06;15.30;87.10
43920;DHT22;29578;51.946;5.874;2023-05-08T00:29:33;15.30;87.00
43920;DHT22;29578;51.946;5.874;2023-05-08T00:31:59;15.40;87.20
43920;DHT22;29578;51.946;5.874;2023-05-08T00:34:25;15.30;87.10
43920;DHT22;29578;51.946;5.874;2023-05-08T00:36:50;15.30;87.10
43920;DHT22;29578;51.946;5.874;2023-05-08T00:39:16;15.30;87.20
43920;DHT22;29578;51.946;5.874;2023-05-08T00:41:42;15.40;87.20
43920;DHT22;29578;51.946;5.874;2023-05-08T00:44:08;15.30;87.20
43920;DHT22;29578;51.946;5.874;2023-05-08T00:46:34;15.20;87.20
43920;DHT22;29578;51.946;5.874;2023-05-08T00:49:01;15.20;87.20
43920;DHT22;29578;51.946;5.874;2023-05-08T00:51:27;15.20;87.30
43920;DHT22;29578;51.946;5.874;2023-05-08T00:53:53;15.10;87.30
43920;DHT22;29578;51.946;5.874;2023-05-08T00:56:20;15.10;87.40
43920;DHT22;29578;51.946;5.874;2023-05-08T00:58:47;15.10;87.40
43920;DHT22;29578;51.946;5.874;2023-05-08T01:01:13;15.10;87.40
43920;DHT22;29578;51.946;5.874;2023-05-08T01:03:39;15.00;87.50
43920;DHT22;29578;51.946;5.874;2023-05-08T01:06:05;15.00;87.50
43920;DHT22;29578;51.946;5.874;2023-05-08T01:08:31;15.00;87.60
43920;DHT22;29578;51.946;5.874;2023-05-08T01:14:20;15.00;87.70
43920;DHT22;29578;51.946;5.874;2023-05-08T01:17:07;14.90;87.70
43920;DHT22;29578;51.946;5.874;2023-05-08T01:19:52;14.90;87.60
43920;DHT22;29578;51.946;5.874;2023-05-08T01:22:43;14.90;88.20
43920;DHT22;29578;51.946;5.874;2023-05-08T01:31:17;14.80;87.50
43920;DHT22;29578;51.946;5.874;2023-05-08T01:33:48;14.80;87.60
43920;DHT22;29578;51.946;5.874;2023-05-08T01:36:22;14.80;87.50
43920;DHT22;29578;51.946;5.874;2023-05-08T01:38:57;14.80;87.60
43920;DHT22;29578;51.946;5.874;2023-05-08T01:41:26;14.80;87.60
43920;DHT22;29578;51.946;5.874;2023-05-08T01:44:09;14.70;87.60
43920;DHT22;29578;51.946;5.874;2023-05-08T01:46:35;14.70;87.70
43920;DHT22;29578;51.946;5.874;2023-05-08T01:49:08;14.70;87.70
43920;DHT22;29578;51.946;5.874;2023-05-08T01:51:39;14.70;87.80
43920;DHT22;29578;51.946;5.874;2023-05-08T01:54:09;14.60;87.70
43920;DHT22;29578;51.946;5.874;2023-05-08T01:56:37;14.60;87.80
43920;DHT22;29578;51.946;5.874;2023-05-08T01:59:05;14.60;87.70
43920;DHT22;29578;51.946;5.874;2023-05-08T02:01:32;14.60;87.80
43920;DHT22;29578;51.946;5.874;2023-05-08T02:03:59;14.50;88.40
43920;DHT22;29578;51.946;5.874;2023-05-08T02:06:26;14.50;87.90
43920;DHT22;29578;51.946;5.874;2023-05-08T02:08:53;14.50;87.90
43920;DHT22;29578;51.946;5.874;2023-05-08T02:11:21;14.50;87.90
43920;DHT22;29578;51.946;5.874;2023-05-08T02:13:49;14.40;87.90
43920;DHT22;29578;51.946;5.874;2023-05-08T02:16:16;14.40;88.00
43920;DHT22;29578;51.946;5.874;2023-05-08T02:18:48;14.30;88.00
43920;DHT22;29578;51.946;5.874;2023-05-08T02:21:16;14.40;88.10
43920;DHT22;29578;51.946;5.874;2023-05-08T02:23:44;14.30;88.00
43920;DHT22;29578;51.946;5.874;2023-05-08T02:26:11;14.30;88.10
43920;DHT22;29578;51.946;5.874;2023-05-08T02:28:39;14.20;88.00
43920;DHT22;29578;51.946;5.874;2023-05-08T02:31:06;14.30;88.10
43920;DHT22;29578;51.946;5.874;2023-05-08T02:33:33;14.20;88.10
43920;DHT22;29578;51.946;5.874;2023-05-08T02:36:00;14.10;88.10
43920;DHT22;29578;51.946;5.874;2023-05-08T02:38:27;14.20;88.20
43920;DHT22;29578;51.946;5.874;2023-05-08T02:40:57;14.10;88.20
43920;DHT22;29578;51.946;5.874;2023-05-08T02:43:25;14.10;88.20
43920;DHT22;29578;51.946;5.874;2023-05-08T02:46:04;14.10;88.20
43920;DHT22;29578;51.946;5.874;2023-05-08T02:48:38;14.10;88.20
43920;DHT22;29578;51.946;5.874;2023-05-08T02:51:25;14.00;88.10
43920;DHT22;29578;51.946;5.874;2023-05-08T02:54:03;14.10;88.20
43920;DHT22;29578;51.946;5.874;2023-05-08T02:56:37;13.90;88.10
43920;DHT22;29578;51.946;5.874;2023-05-08T02:59:16;14.00;88.30
43920;DHT22;29578;51.946;5.874;2023-05-08T03:01:48;13.90;88.30
43920;DHT22;29578;51.946;5.874;2023-05-08T03:04:23;13.90;88.20
43920;DHT22;29578;51.946;5.874;2023-05-08T03:06:51;13.80;88.20
43920;DHT22;29578;51.946;5.874;2023-05-08T03:09:20;13.90;88.30
43920;DHT22;29578;51.946;5.874;2023-05-08T03:11:49;13.80;88.20
43920;DHT22;29578;51.946;5.874;2023-05-08T03:14:20;13.90;88.20
43920;DHT22;29578;51.946;5.874;2023-05-08T03:16:47;13.80;88.20
43920;DHT22;29578;51.946;5.874;2023-05-08T03:19:27;13.90;88.20
43920;DHT22;29578;51.946;5.874;2023-05-08T03:21:55;13.80;88.20
43920;DHT22;29578;51.946;5.874;2023-05-08T03:24:23;13.80;88.20
43920;DHT22;29578;51.946;5.874;2023-05-08T03:26:50;13.70;88.10
43920;DHT22;29578;51.946;5.874;2023-05-08T03:29:16;13.70;88.10
43920;DHT22;29578;51.946;5.874;2023-05-08T03:31:43;13.70;88.10
43920;DHT22;29578;51.946;5.874;2023-05-08T03:34:11;13.70;88.10
43920;DHT22;29578;51.946;5.874;2023-05-08T03:36:37;13.70;88.20
43920;DHT22;29578;51.946;5.874;2023-05-08T03:39:03;13.70;88.10
43920;DHT22;29578;51.946;5.874;2023-05-08T03:41:29;13.70;88.10
43920;DHT22;29578;51.946;5.874;2023-05-08T03:43:55;13.70;88.20
43920;DHT22;29578;51.946;5.874;2023-05-08T03:46:22;13.70;88.20
43920;DHT22;29578;51.946;5.874;2023-05-08T03:48:48;13.60;88.70
43920;DHT22;29578;51.946;5.874;2023-05-08T03:51:15;13.60;88.10
43920;DHT22;29578;51.946;5.874;2023-05-08T03:53:41;13.70;88.10
43920;DHT22;29578;51.946;5.874;2023-05-08T03:56:07;13.60;88.10
43920;DHT22;29578;51.946;5.874;2023-05-08T03:58:46;13.60;88.10
43920;DHT22;29578;51.946;5.874;2023-05-08T04:01:38;13.60;88.10
43920;DHT22;29578;51.946;5.874;2023-05-08T04:04:16;13.70;88.10
43920;DHT22;29578;51.946;5.874;2023-05-08T04:06:52;13.60;88.00
43920;DHT22;29578;51.946;5.874;2023-05-08T04:09:32;13.60;88.00
43920;DHT22;29578;51.946;5.874;2023-05-08T04:12:04;13.60;88.00
43920;DHT22;29578;51.946;5.874;2023-05-08T04:14:33;13.60;88.10
43920;DHT22;29578;51.946;5.874;2023-05-08T04:17:02;13.60;88.00
43920;DHT22;29578;51.946;5.874;2023-05-08T04:19:35;13.60;88.00
43920;DHT22;29578;51.946;5.874;2023-05-08T04:22:05;13.50;87.90
43920;DHT22;29578;51.946;5.874;2023-05-08T04:24:34;13.50;87.90
43920;DHT22;29578;51.946;5.874;2023-05-08T04:27:02;13.60;88.00
43920;DHT22;29578;51.946;5.874;2023-05-08T04:29:28;13.50;87.90
43920;DHT22;29578;51.946;5.874;2023-05-08T04:31:55;13.60;88.00
43920;DHT22;29578;51.946;5.874;2023-05-08T04:34:22;13.60;88.00
43920;DHT22;29578;51.946;5.874;2023-05-08T04:36:48;13.60;88.00
43920;DHT22;29578;51.946;5.874;2023-05-08T04:39:13;13.60;88.00
43920;DHT22;29578;51.946;5.874;2023-05-08T04:41:39;13.60;88.00
43920;DHT22;29578;51.946;5.874;2023-05-08T04:44:05;13.50;87.90
43920;DHT22;29578;51.946;5.874;2023-05-08T04:46:30;13.50;87.90
43920;DHT22;29578;51.946;5.874;2023-05-08T04:48:56;13.50;87.90
43920;DHT22;29578;51.946;5.874;2023-05-08T04:51:22;13.60;88.00
43920;DHT22;29578;51.946;5.874;2023-05-08T04:53:47;13.50;87.80
43920;DHT22;29578;51.946;5.874;2023-05-08T04:56:13;13.60;87.90
43920;DHT22;29578;51.946;5.874;2023-05-08T04:58:38;13.50;87.90
43920;DHT22;29578;51.946;5.874;2023-05-08T05:01:04;13.60;88.00
43920;DHT22;29578;51.946;5.874;2023-05-08T05:03:30;13.60;88.00
43920;DHT22;29578;51.946;5.874;2023-05-08T05:05:58;13.50;87.90
43920;DHT22;29578;51.946;5.874;2023-05-08T05:08:24;13.50;87.90
43920;DHT22;29578;51.946;5.874;2023-05-08T05:10:49;13.60;88.00
43920;DHT22;29578;51.946;5.874;2023-05-08T05:13:15;13.60;88.00
43920;DHT22;29578;51.946;5.874;2023-05-08T05:15:42;13.60;87.90
43920;DHT22;29578;51.946;5.874;2023-05-08T05:18:08;13.60;87.90
43920;DHT22;29578;51.946;5.874;2023-05-08T05:20:33;13.60;87.80
43920;DHT22;29578;51.946;5.874;2023-05-08T05:22:59;13.70;87.80
43920;DHT22;29578;51.946;5.874;2023-05-08T05:25:25;13.70;87.70
43920;DHT22;29578;51.946;5.874;2023-05-08T05:27:50;13.80;87.60
43920;DHT22;29578;51.946;5.874;2023-05-08T05:30:17;13.80;87.50
43920;DHT22;29578;51.946;5.874;2023-05-08T05:32:42;13.80;87.50
43920;DHT22;29578;51.946;5.874;2023-05-08T05:35:09;13.80;87.40
43920;DHT22;29578;51.946;5.874;2023-05-08T05:37:35;13.90;87.50
43920;DHT22;29578;51.946;5.874;2023-05-08T05:40:01;13.90;87.40
43920;DHT22;29578;51.946;5.874;2023-05-08T05:42:26;13.90;87.40
43920;DHT22;29578;51.946;5.874;2023-05-08T05:44:52;13.90;87.30
43920;DHT22;29578;51.946;5.874;2023-05-08T05:47:17;14.00;87.40
43920;DHT22;29578;51.946;5.874;2023-05-08T05:49:43;14.00;87.30
43920;DHT22;29578;51.946;5.874;2023-05-08T05:52:12;14.10;87.20
43920;DHT22;29578;51.946;5.874;2023-05-08T05:54:38;14.10;87.10
43920;DHT22;29578;51.946;5.874;2023-05-08T05:57:04;14.20;87.10
43920;DHT22;29578;51.946;5.874;2023-05-08T05:59:30;14.20;87.00
43920;DHT22;29578;51.946;5.874;2023-05-08T06:01:55;14.20;86.90
43920;DHT22;29578;51.946;5.874;2023-05-08T06:04:21;14.30;86.90
43920;DHT22;29578;51.946;5.874;2023-05-08T06:06:49;14.40;86.90
43920;DHT22;29578;51.946;5.874;2023-05-08T06:09:23;14.40;86.80
43920;DHT22;29578;51.946;5.874;2023-05-08T06:11:48;14.50;86.70
43920;DHT22;29578;51.946;5.874;2023-05-08T06:14:14;14.50;86.70
43920;DHT22;29578;51.946;5.874;2023-05-08T06:16:40;14.60;86.60
43920;DHT22;29578;51.946;5.874;2023-05-08T06:19:06;14.60;86.50
43920;DHT22;29578;51.946;5.874;2023-05-08T06:21:32;14.70;86.50
43920;DHT22;29578;51.946;5.874;2023-05-08T06:24:16;14.60;86.40
43920;DHT22;29578;51.946;5.874;2023-05-08T06:26:48;14.70;86.50
43920;DHT22;29578;51.946;5.874;2023-05-08T06:29:13;14.80;86.50
43920;DHT22;29578;51.946;5.874;2023-05-08T06:31:39;14.80;86.50
43920;DHT22;29578;51.946;5.874;2023-05-08T06:34:05;14.80;86.60
43920;DHT22;29578;51.946;5.874;2023-05-08T06:36:30;14.80;86.60
43920;DHT22;29578;51.946;5.874;2023-05-08T06:38:56;14.90;86.60
43920;DHT22;29578;51.946;5.874;2023-05-08T06:41:22;14.90;86.60
43920;DHT22;29578;51.946;5.874;2023-05-08T06:43:48;15.00;87.20
43920;DHT22;29578;51.946;5.874;2023-05-08T06:46:13;15.00;86.50
43920;DHT22;29578;51.946;5.874;2023-05-08T06:48:39;15.00;86.50
43920;DHT22;29578;51.946;5.874;2023-05-08T06:51:05;15.00;86.40
43920;DHT22;29578;51.946;5.874;2023-05-08T06:53:33;15.10;86.60
43920;DHT22;29578;51.946;5.874;2023-05-08T06:55:58;15.20;86.60
43920;DHT22;29578;51.946;5.874;2023-05-08T06:58:24;15.20;86.50
43920;DHT22;29578;51.946;5.874;2023-05-08T07:00:50;15.30;86.50
43920;DHT22;29578;51.946;5.874;2023-05-08T07:03:15;15.40;86.50
43920;DHT22;29578;51.946;5.874;2023-05-08T07:09:00;15.50;86.30
43920;DHT22;29578;51.946;5.874;2023-05-08T07:11:40;15.60;86.20
43920;DHT22;29578;51.946;5.874;2023-05-08T07:14:39;15.70;86.10
43920;DHT22;29578;51.946;5.874;2023-05-08T07:17:13;15.90;86.00
43920;DHT22;29578;51.946;5.874;2023-05-08T07:19:57;16.00;85.60
43920;DHT22;29578;51.946;5.874;2023-05-08T07:22:30;16.20;85.50
43920;DHT22;29578;51.946;5.874;2023-05-08T07:24:56;16.30;85.10
43920;DHT22;29578;51.946;5.874;2023-05-08T07:27:22;16.40;85.10
43920;DHT22;29578;51.946;5.874;2023-05-08T07:29:47;16.60;84.80
43920;DHT22;29578;51.946;5.874;2023-05-08T07:32:13;16.80;84.70
43920;DHT22;29578;51.946;5.874;2023-05-08T07:34:39;16.90;84.50
43920;DHT22;29578;51.946;5.874;2023-05-08T07:37:06;17.00;84.30
43920;DHT22;29578;51.946;5.874;2023-05-08T07:39:31;17.10;84.20
43920;DHT22;29578;51.946;5.874;2023-05-08T07:41:57;17.20;84.20
43920;DHT22;29578;51.946;5.874;2023-05-08T07:44:23;17.30;84.40
43920;DHT22;29578;51.946;5.874;2023-05-08T07:46:48;17.40;84.30
43920;DHT22;29578;51.946;5.874;2023-05-08T07:49:20;17.40;84.20
43920;DHT22;29578;51.946;5.874;2023-05-08T07:52:05;17.50;84.30
43920;DHT22;29578;51.946;5.874;2023-05-08T07:54:56;17.50;84.30
43920;DHT22;29578;51.946;5.874;2023-05-08T07:57:35;17.60;84.40
43920;DHT22;29578;51.946;5.874;2023-05-08T08:00:02;17.60;84.40
43920;DHT22;29578;51.946;5.874;2023-05-08T08:02:28;17.60;84.50
43920;DHT22;29578;51.946;5.874;2023-05-08T08:04:53;17.60;84.70
43920;DHT22;29578;51.946;5.874;2023-05-08T08:07:19;17.50;84.90
43920;DHT22;29578;51.946;5.874;2023-05-08T08:09:44;17.40;85.10
43920;DHT22;29578;51.946;5.874;2023-05-08T08:12:10;17.40;85.40
43920;DHT22;29578;51.946;5.874;2023-05-08T08:14:36;17.30;85.70
43920;DHT22;29578;51.946;5.874;2023-05-08T08:17:04;17.30;85.70
43920;DHT22;29578;51.946;5.874;2023-05-08T08:19:33;17.30;85.80
43920;DHT22;29578;51.946;5.874;2023-05-08T08:21:58;17.40;86.00
43920;DHT22;29578;51.946;5.874;2023-05-08T08:24:24;17.50;85.90
43920;DHT22;29578;51.946;5.874;2023-05-08T08:26:50;17.50;85.90
43920;DHT22;29578;51.946;5.874;2023-05-08T08:29:15;17.50;85.60
43920;DHT22;29578;51.946;5.874;2023-05-08T08:32:30;17.50;85.60
43920;DHT22;29578;51.946;5.874;2023-05-08T08:34:42;17.60;85.70
43920;DHT22;29578;51.946;5.874;2023-05-08T08:37:07;17.70;85.70
43920;DHT22;29578;51.946;5.874;2023-05-08T08:39:33;17.70;85.60
43920;DHT22;29578;51.946;5.874;2023-05-08T08:41:59;17.90;85.50
43920;DHT22;29578;51.946;5.874;2023-05-08T08:44:25;18.10;85.20
43920;DHT22;29578;51.946;5.874;2023-05-08T08:46:52;18.20;84.90
43920;DHT22;29578;51.946;5.874;2023-05-08T08:49:31;18.40;84.70
43920;DHT22;29578;51.946;5.874;2023-05-08T08:56:07;18.60;84.40
43920;DHT22;29578;51.946;5.874;2023-05-08T08:58:40;18.80;84.00
43920;DHT22;29578;51.946;5.874;2023-05-08T09:01:15;18.90;83.70
43920;DHT22;29578;51.946;5.874;2023-05-08T09:03:45;19.10;83.80
43920;DHT22;29578;51.946;5.874;2023-05-08T09:06:18;19.20;83.60
43920;DHT22;29578;51.946;5.874;2023-05-08T09:08:44;19.40;83.20
43920;DHT22;29578;51.946;5.874;2023-05-08T09:11:12;19.50;83.10
43920;DHT22;29578;51.946;5.874;2023-05-08T09:13:41;19.50;83.20
43920;DHT22;29578;51.946;5.874;2023-05-08T09:16:06;19.70;83.60
43920;DHT22;29578;51.946;5.874;2023-05-08T09:18:32;19.90;82.90
43920;DHT22;29578;51.946;5.874;2023-05-08T09:20:58;20.10;82.60
43920;DHT22;29578;51.946;5.874;2023-05-08T09:23:25;20.20;82.20
43920;DHT22;29578;51.946;5.874;2023-05-08T09:25:51;20.30;82.10
43920;DHT22;29578;51.946;5.874;2023-05-08T09:28:20;20.30;81.90
43920;DHT22;29578;51.946;5.874;2023-05-08T09:30:48;20.10;82.20
43920;DHT22;29578;51.946;5.874;2023-05-08T09:33:14;19.90;82.50
43920;DHT22;29578;51.946;5.874;2023-05-08T09:35:40;19.80;83.20
43920;DHT22;29578;51.946;5.874;2023-05-08T09:38:06;19.80;83.20
43920;DHT22;29578;51.946;5.874;2023-05-08T09:40:31;19.80;83.40
43920;DHT22;29578;51.946;5.874;2023-05-08T09:43:11;19.80;83.70
43920;DHT22;29578;51.946;5.874;2023-05-08T09:45:38;19.70;83.50
43920;DHT22;29578;51.946;5.874;2023-05-08T09:48:05;20.00;83.60
43920;DHT22;29578;51.946;5.874;2023-05-08T09:50:31;20.20;83.40
43920;DHT22;29578;51.946;5.874;2023-05-08T09:52:57;20.40;82.80
43920;DHT22;29578;51.946;5.874;2023-05-08T09:55:23;20.40;82.50
43920;DHT22;29578;51.946;5.874;2023-05-08T09:57:57;20.60;82.40
43920;DHT22;29578;51.946;5.874;2023-05-08T10:00:26;20.60;82.20
43920;DHT22;29578;51.946;5.874;2023-05-08T10:02:55;20.70;82.20
43920;DHT22;29578;51.946;5.874;2023-05-08T10:05:25;20.80;81.90
43920;DHT22;29578;51.946;5.874;2023-05-08T10:07:52;20.70;81.80
43920;DHT22;29578;51.946;5.874;2023-05-08T10:10:31;20.70;82.20
43920;DHT22;29578;51.946;5.874;2023-05-08T10:12:57;20.70;82.40
43920;DHT22;29578;51.946;5.874;2023-05-08T10:15:25;20.80;82.20
43920;DHT22;29578;51.946;5.874;2023-05-08T10:18:07;20.60;82.20
43920;DHT22;29578;51.946;5.874;2023-05-08T10:20:37;20.50;82.80
43920;DHT22;29578;51.946;5.874;2023-05-08T10:23:06;20.50;83.10
43920;DHT22;29578;51.946;5.874;2023-05-08T10:25:35;20.50;83.30
43920;DHT22;29578;51.946;5.874;2023-05-08T10:28:15;20.50;83.20
43920;DHT22;29578;51.946;5.874;2023-05-08T10:30:46;20.50;83.10
43920;DHT22;29578;51.946;5.874;2023-05-08T10:33:14;20.50;82.90
43920;DHT22;29578;51.946;5.874;2023-05-08T10:35:41;20.50;82.90
43920;DHT22;29578;51.946;5.874;2023-05-08T10:38:08;20.30;82.90
43920;DHT22;29578;51.946;5.874;2023-05-08T10:40:34;20.20;83.40
43920;DHT22;29578;51.946;5.874;2023-05-08T10:43:00;20.00;83.70
43920;DHT22;29578;51.946;5.874;2023-05-08T10:45:26;19.90;84.00
43920;DHT22;29578;51.946;5.874;2023-05-08T10:51:22;19.50;84.90
43920;DHT22;29578;51.946;5.874;2023-05-08T10:53:56;19.30;85.40
43920;DHT22;29578;51.946;5.874;2023-05-08T10:56:26;19.20;85.70
43920;DHT22;29578;51.946;5.874;2023-05-08T10:58:56;19.10;85.80
43920;DHT22;29578;51.946;5.874;2023-05-08T11:01:22;19.00;85.90
43920;DHT22;29578;51.946;5.874;2023-05-08T11:03:48;18.90;86.00
43920;DHT22;29578;51.946;5.874;2023-05-08T11:06:41;19.00;86.00
43920;DHT22;29578;51.946;5.874;2023-05-08T11:09:00;19.00;86.00
43920;DHT22;29578;51.946;5.874;2023-05-08T11:11:30;18.90;85.80
43920;DHT22;29578;51.946;5.874;2023-05-08T11:14:11;19.00;85.80
43920;DHT22;29578;51.946;5.874;2023-05-08T11:19:34;19.00;85.70
43920;DHT22;29578;51.946;5.874;2023-05-08T11:22:20;19.00;85.60
43920;DHT22;29578;51.946;5.874;2023-05-08T11:24:53;18.90;85.60
43920;DHT22;29578;51.946;5.874;2023-05-08T11:27:32;19.10;85.40
43920;DHT22;29578;51.946;5.874;2023-05-08T11:30:17;19.10;85.20
43920;DHT22;29578;51.946;5.874;2023-05-08T11:33:11;19.20;85.00
43920;DHT22;29578;51.946;5.874;2023-05-08T11:35:46;19.20;84.80
43920;DHT22;29578;51.946;5.874;2023-05-08T11:38:16;19.30;84.70
43920;DHT22;29578;51.946;5.874;2023-05-08T11:41:04;19.30;84.50
43920;DHT22;29578;51.946;5.874;2023-05-08T11:50:15;19.60;84.00
43920;DHT22;29578;51.946;5.874;2023-05-08T11:52:46;19.70;83.60
43920;DHT22;29578;51.946;5.874;2023-05-08T11:55:21;19.90;83.40
43920;DHT22;29578;51.946;5.874;2023-05-08T11:57:55;20.10;82.90
43920;DHT22;29578;51.946;5.874;2023-05-08T12:00:47;20.20;82.20
43920;DHT22;29578;51.946;5.874;2023-05-08T12:03:18;20.40;82.10
43920;DHT22;29578;51.946;5.874;2023-05-08T12:05:44;20.40;82.00
43920;DHT22;29578;51.946;5.874;2023-05-08T12:08:11;20.30;82.00
43920;DHT22;29578;51.946;5.874;2023-05-08T12:10:51;20.40;82.60
43920;DHT22;29578;51.946;5.874;2023-05-08T12:13:24;20.50;82.00
43920;DHT22;29578;51.946;5.874;2023-05-08T12:15:54;20.40;81.80
43920;DHT22;29578;51.946;5.874;2023-05-08T12:18:28;20.40;81.90
43920;DHT22;29578;51.946;5.874;2023-05-08T12:21:03;20.30;82.10
43920;DHT22;29578;51.946;5.874;2023-05-08T12:23:32;20.20;82.40
43920;DHT22;29578;51.946;5.874;2023-05-08T12:26:01;20.30;82.40
43920;DHT22;29578;51.946;5.874;2023-05-08T12:29:08;20.30;82.40
43920;DHT22;29578;51.946;5.874;2023-05-08T12:31:35;20.30;82.30
43920;DHT22;29578;51.946;5.874;2023-05-08T12:34:06;20.30;82.30
43920;DHT22;29578;51.946;5.874;2023-05-08T12:36:43;20.40;82.30
43920;DHT22;29578;51.946;5.874;2023-05-08T12:39:35;20.40;82.40
43920;DHT22;29578;51.946;5.874;2023-05-08T12:42:01;20.40;82.40
43920;DHT22;29578;51.946;5.874;2023-05-08T12:44:29;20.40;82.40
43920;DHT22;29578;51.946;5.874;2023-05-08T12:46:58;20.30;82.50
43920;DHT22;29578;51.946;5.874;2023-05-08T12:49:29;20.30;82.50
43920;DHT22;29578;51.946;5.874;2023-05-08T12:52:01;20.30;82.60
43920;DHT22;29578;51.946;5.874;2023-05-08T12:54:37;20.30;82.70
43920;DHT22;29578;51.946;5.874;2023-05-08T12:57:29;20.30;82.70
43920;DHT22;29578;51.946;5.874;2023-05-08T13:00:04;20.50;82.60
43920;DHT22;29578;51.946;5.874;2023-05-08T13:03:12;20.50;82.40
43920;DHT22;29578;51.946;5.874;2023-05-08T13:05:43;20.50;82.00
43920;DHT22;29578;51.946;5.874;2023-05-08T13:08:12;20.60;82.50
43920;DHT22;29578;51.946;5.874;2023-05-08T13:11:05;20.60;81.60
43920;DHT22;29578;51.946;5.874;2023-05-08T13:13:33;20.60;81.50
43920;DHT22;29578;51.946;5.874;2023-05-08T13:16:02;20.50;81.80
43920;DHT22;29578;51.946;5.874;2023-05-08T13:18:31;20.50;82.00
43920;DHT22;29578;51.946;5.874;2023-05-08T13:21:03;20.50;82.00
43920;DHT22;29578;51.946;5.874;2023-05-08T13:23:37;20.50;82.00
43920;DHT22;29578;51.946;5.874;2023-05-08T13:26:07;20.40;82.00
43920;DHT22;29578;51.946;5.874;2023-05-08T13:28:34;20.40;82.30
43920;DHT22;29578;51.946;5.874;2023-05-08T13:31:00;20.40;82.40
43920;DHT22;29578;51.946;5.874;2023-05-08T13:33:26;20.40;82.50
43920;DHT22;29578;51.946;5.874;2023-05-08T13:35:52;20.40;82.30
43920;DHT22;29578;51.946;5.874;2023-05-08T13:38:18;20.50;82.10
43920;DHT22;29578;51.946;5.874;2023-05-08T13:40:44;20.50;82.10
43920;DHT22;29578;51.946;5.874;2023-05-08T13:43:10;20.40;82.20
43920;DHT22;29578;51.946;5.874;2023-05-08T13:45:36;20.50;82.40
43920;DHT22;29578;51.946;5.874;2023-05-08T13:48:01;20.50;82.20
43920;DHT22;29578;51.946;5.874;2023-05-08T13:50:27;20.60;82.00
43920;DHT22;29578;51.946;5.874;2023-05-08T13:52:52;20.70;82.00
43920;DHT22;29578;51.946;5.874;2023-05-08T13:55:18;20.70;81.80
43920;DHT22;29578;51.946;5.874;2023-05-08T13:57:46;20.70;81.70
43920;DHT22;29578;51.946;5.874;2023-05-08T14:00:12;20.70;81.70
43920;DHT22;29578;51.946;5.874;2023-05-08T14:02:38;20.80;81.60
43920;DHT22;29578;51.946;5.874;2023-05-08T14:05:05;20.80;81.60
43920;DHT22;29578;51.946;5.874;2023-05-08T14:07:32;20.90;81.50
43920;DHT22;29578;51.946;5.874;2023-05-08T14:09:58;21.00;81.50
43920;DHT22;29578;51.946;5.874;2023-05-08T14:12:24;20.80;81.40
43920;DHT22;29578;51.946;5.874;2023-05-08T14:14:49;20.90;81.50
43920;DHT22;29578;51.946;5.874;2023-05-08T14:17:15;20.90;81.20
43920;DHT22;29578;51.946;5.874;2023-05-08T14:19:41;20.90;81.10
43920;DHT22;29578;51.946;5.874;2023-05-08T14:22:06;20.90;81.10
43920;DHT22;29578;51.946;5.874;2023-05-08T14:24:32;21.00;81.10
43920;DHT22;29578;51.946;5.874;2023-05-08T14:26:58;21.00;81.00
43920;DHT22;29578;51.946;5.874;2023-05-08T14:29:24;21.10;80.90
43920;DHT22;29578;51.946;5.874;2023-05-08T14:31:49;21.00;80.90
43920;DHT22;29578;51.946;5.874;2023-05-08T14:34:15;21.00;81.10
43920;DHT22;29578;51.946;5.874;2023-05-08T14:36:40;21.00;81.00
43920;DHT22;29578;51.946;5.874;2023-05-08T14:39:06;21.00;80.90
43920;DHT22;29578;51.946;5.874;2023-05-08T14:41:32;21.00;80.90
43920;DHT22;29578;51.946;5.874;2023-05-08T14:43:58;21.00;80.80
43920;DHT22;29578;51.946;5.874;2023-05-08T14:46:24;21.00;80.80
43920;DHT22;29578;51.946;5.874;2023-05-08T14:48:50;21.00;81.40
43920;DHT22;29578;51.946;5.874;2023-05-08T14:51:16;20.80;80.80
43920;DHT22;29578;51.946;5.874;2023-05-08T14:53:44;20.80;81.10
43920;DHT22;29578;51.946;5.874;2023-05-08T14:56:10;20.80;81.40
43920;DHT22;29578;51.946;5.874;2023-05-08T14:58:36;20.70;81.20
43920;DHT22;29578;51.946;5.874;2023-05-08T15:01:01;20.80;81.20
43920;DHT22;29578;51.946;5.874;2023-05-08T15:03:27;20.80;81.10
43920;DHT22;29578;51.946;5.874;2023-05-08T15:05:52;20.90;81.00
43920;DHT22;29578;51.946;5.874;2023-05-08T15:08:18;20.90;80.90
43920;DHT22;29578;51.946;5.874;2023-05-08T15:10:44;20.90;80.80
43920;DHT22;29578;51.946;5.874;2023-05-08T15:13:09;20.80;80.90
43920;DHT22;29578;51.946;5.874;2023-05-08T15:15:35;20.90;80.90
43920;DHT22;29578;51.946;5.874;2023-05-08T15:18:01;20.80;81.00
43920;DHT22;29578;51.946;5.874;2023-05-08T15:20:26;20.70;81.30
43920;DHT22;29578;51.946;5.874;2023-05-08T15:22:52;20.60;81.50
43920;DHT22;29578;51.946;5.874;2023-05-08T15:25:19;20.40;81.90
43920;DHT22;29578;51.946;5.874;2023-05-08T15:27:45;20.30;82.30
43920;DHT22;29578;51.946;5.874;2023-05-08T15:30:17;20.30;82.60
43920;DHT22;29578;51.946;5.874;2023-05-08T15:32:42;20.30;82.80
43920;DHT22;29578;51.946;5.874;2023-05-08T15:35:08;20.30;82.90
43920;DHT22;29578;51.946;5.874;2023-05-08T15:37:34;20.30;83.00
43920;DHT22;29578;51.946;5.874;2023-05-08T15:40:01;20.30;82.80
43920;DHT22;29578;51.946;5.874;2023-05-08T15:42:27;20.40;82.70
43920;DHT22;29578;51.946;5.874;2023-05-08T15:44:56;20.50;82.60
43920;DHT22;29578;51.946;5.874;2023-05-08T15:47:23;20.40;82.50
43920;DHT22;29578;51.946;5.874;2023-05-08T15:49:49;20.50;82.50
43920;DHT22;29578;51.946;5.874;2023-05-08T15:52:15;20.50;82.60
43920;DHT22;29578;51.946;5.874;2023-05-08T15:54:43;20.40;82.50
43920;DHT22;29578;51.946;5.874;2023-05-08T15:57:09;20.50;82.60
43920;DHT22;29578;51.946;5.874;2023-05-08T15:59:35;20.60;82.50
43920;DHT22;29578;51.946;5.874;2023-05-08T16:02:02;20.60;82.50
43920;DHT22;29578;51.946;5.874;2023-05-08T16:04:28;20.60;82.40
43920;DHT22;29578;51.946;5.874;2023-05-08T16:06:58;20.50;82.40
43920;DHT22;29578;51.946;5.874;2023-05-08T16:09:24;20.50;82.40
43920;DHT22;29578;51.946;5.874;2023-05-08T16:11:50;20.50;82.40